createdAt,value
2019-05-16T00:00:14.457Z,5.15
2019-05-16T00:02:50.950Z,5.16
2019-05-16T00:05:24.378Z,5.16
2019-05-16T00:07:59.076Z,5.16
2019-05-16T00:10:33.806Z,5.16
2019-05-16T00:13:04.256Z,5.17
2019-05-16T00:15:38.219Z,5.16
2019-05-16T00:18:11.850Z,5.18
2019-05-16T00:20:49.228Z,5.20
2019-05-16T00:23:19.900Z,5.19
2019-05-16T00:25:50.752Z,5.19
2019-05-16T00:28:32.241Z,5.17
2019-05-16T00:31:09.695Z,5.15
2019-05-16T00:33:44.017Z,5.15
2019-05-16T00:36:14.463Z,5.15
2019-05-16T00:38:44.896Z,5.17
2019-05-16T00:41:17.913Z,5.16
2019-05-16T00:43:52.271Z,5.16
2019-05-16T00:46:22.735Z,5.17
2019-05-16T00:48:58.772Z,5.15
2019-05-16T00:51:28.956Z,5.17
2019-05-16T00:54:00.391Z,5.17
2019-05-16T00:56:31.612Z,5.15
2019-05-16T00:59:05.110Z,5.17
2019-05-16T01:01:35.646Z,5.18
2019-05-16T01:04:08.029Z,5.19
2019-05-16T01:06:39.109Z,5.15
2019-05-16T01:09:11.092Z,5.19
2019-05-16T01:11:41.580Z,5.19
2019-05-16T01:14:12.083Z,5.19
2019-05-16T01:16:42.640Z,5.17
2019-05-16T01:19:13.025Z,5.18
2019-05-16T01:21:50.917Z,5.17
2019-05-16T01:24:21.699Z,5.18
2019-05-16T01:26:52.267Z,5.17
2019-05-16T01:29:23.816Z,5.17
2019-05-16T01:31:54.335Z,5.16
2019-05-16T01:34:32.410Z,5.18
2019-05-16T01:37:02.860Z,5.13
2019-05-16T01:39:33.422Z,5.12
2019-05-16T01:42:03.802Z,5.14
2019-05-16T01:44:34.732Z,5.15
2019-05-16T01:47:05.188Z,5.13
2019-05-16T01:49:48.794Z,5.09
2019-05-16T01:52:21.858Z,5.09
2019-05-16T01:54:52.331Z,5.07
2019-05-16T01:57:23.006Z,5.09
2019-05-16T01:59:53.705Z,5.08
2019-05-16T02:02:24.202Z,5.09
2019-05-16T02:04:55.040Z,5.07
2019-05-16T02:07:28.115Z,5.07
2019-05-16T02:09:58.209Z,5.07
2019-05-16T02:12:29.012Z,5.08
2019-05-16T02:14:59.499Z,5.07
2019-05-16T02:17:31.262Z,5.07
2019-05-16T02:20:01.791Z,5.04
2019-05-16T02:22:32.245Z,5.04
2019-05-16T02:25:02.734Z,5.06
2019-05-16T02:27:33.237Z,5.07
2019-05-16T02:30:21.275Z,5.08
2019-05-16T02:32:52.245Z,5.08
2019-05-16T02:35:22.325Z,5.09
2019-05-16T02:37:56.482Z,5.10
2019-05-16T02:40:31.250Z,5.09
2019-05-16T02:43:12.560Z,5.10
2019-05-16T02:45:44.884Z,5.09
2019-05-16T02:48:20.926Z,5.07
2019-05-16T02:50:52.283Z,5.08
2019-05-16T02:53:23.084Z,5.08
2019-05-16T02:55:53.845Z,5.06
2019-05-16T02:58:26.851Z,5.04
2019-05-16T03:00:57.388Z,5.05
2019-05-16T03:03:27.798Z,5.07
2019-05-16T03:06:01.053Z,5.05
2019-05-16T03:08:32.043Z,5.06
2019-05-16T03:11:03.111Z,5.06
2019-05-16T03:13:36.821Z,5.06
2019-05-16T03:16:11.673Z,5.04
2019-05-16T03:18:42.672Z,5.02
2019-05-16T03:21:13.072Z,4.98
2019-05-16T03:24:13.112Z,4.99
2019-05-16T03:26:43.574Z,4.97
2019-05-16T03:29:13.965Z,4.96
2019-05-16T03:31:55.025Z,4.96
2019-05-16T03:34:26.770Z,4.97
2019-05-16T03:37:03.809Z,4.99
2019-05-16T03:39:34.745Z,4.97
2019-05-16T03:42:07.090Z,4.96
2019-05-16T03:44:45.077Z,4.97
2019-05-16T03:47:15.495Z,4.94
2019-05-16T03:49:45.887Z,4.96
2019-05-16T03:52:20.742Z,4.98
2019-05-16T03:55:01.732Z,4.98
2019-05-16T03:57:35.109Z,4.96
2019-05-16T04:00:06.058Z,4.99
2019-05-16T04:02:36.493Z,5.00
2019-05-16T04:05:21.204Z,4.96
2019-05-16T04:08:15.249Z,4.97
2019-05-16T04:10:35.983Z,4.96
2019-05-16T04:13:06.425Z,4.99
2019-05-16T04:15:41.591Z,4.96
2019-05-16T04:18:12.086Z,4.99
2019-05-16T04:20:42.781Z,5.00
2019-05-16T04:23:13.160Z,5.05
2019-05-16T04:25:43.637Z,5.05
2019-05-16T04:28:14.115Z,5.07
2019-05-16T04:30:44.539Z,5.08
2019-05-16T04:33:33.264Z,5.11
2019-05-16T04:36:03.726Z,5.11
2019-05-16T04:38:41.017Z,5.09
2019-05-16T04:41:06.277Z,5.11
2019-05-16T04:43:41.677Z,5.14
2019-05-16T04:46:13.836Z,5.16
2019-05-16T04:48:45.589Z,5.16
2019-05-16T04:51:16.155Z,5.14
2019-05-16T04:53:46.541Z,5.18
2019-05-16T04:56:16.959Z,5.19
2019-05-16T04:58:47.340Z,5.18
2019-05-16T05:01:21.822Z,5.18
2019-05-16T05:04:06.122Z,5.19
2019-05-16T05:06:24.548Z,5.16
2019-05-16T05:08:58.881Z,5.18
2019-05-16T05:11:30.700Z,5.15
2019-05-16T05:14:04.302Z,5.15
2019-05-16T05:16:34.744Z,5.18
2019-05-16T05:19:05.145Z,5.22
2019-05-16T05:21:35.952Z,5.20
2019-05-16T05:24:10.660Z,5.16
2019-05-16T05:26:41.447Z,5.18
2019-05-16T05:29:23.763Z,5.20
2019-05-16T05:31:55.496Z,5.21
2019-05-16T05:34:26.277Z,5.20
2019-05-16T05:36:56.960Z,5.21
2019-05-16T05:39:27.427Z,5.26
2019-05-16T05:42:11.824Z,5.23
2019-05-16T05:44:42.237Z,5.28
2019-05-16T05:47:12.905Z,5.32
2019-05-16T05:49:43.357Z,5.32
2019-05-16T05:52:14.601Z,5.28
2019-05-16T05:54:45.007Z,5.31
2019-05-16T05:57:17.896Z,5.38
2019-05-16T05:59:49.826Z,5.36
2019-05-16T06:02:20.552Z,5.39
2019-05-16T06:04:56.776Z,5.36
2019-05-16T06:07:27.211Z,5.38
2019-05-16T06:10:00.213Z,5.38
2019-05-16T06:12:30.526Z,5.39
2019-05-16T06:15:08.195Z,5.42
2019-05-16T06:17:33.298Z,5.37
2019-05-16T06:20:03.799Z,5.34
2019-05-16T06:22:34.250Z,5.35
2019-05-16T06:25:05.087Z,5.26
2019-05-16T06:27:35.693Z,5.23
2019-05-16T06:30:06.403Z,5.25
2019-05-16T06:32:39.407Z,5.29
2019-05-16T06:35:09.811Z,5.29
2019-05-16T06:37:49.969Z,5.31
2019-05-16T06:40:23.193Z,5.30
2019-05-16T06:42:53.646Z,5.34
2019-05-16T06:45:32.088Z,5.36
2019-05-16T06:48:05.048Z,5.37
2019-05-16T06:50:37.139Z,5.35
2019-05-16T06:53:11.298Z,5.34
2019-05-16T06:55:46.503Z,5.36
2019-05-16T06:58:22.206Z,5.35
2019-05-16T07:00:53.136Z,5.28
2019-05-16T07:03:23.889Z,5.21
2019-05-16T07:05:54.367Z,5.18
2019-05-16T07:08:25.290Z,5.19
2019-05-16T07:10:55.809Z,5.17
2019-05-16T07:13:26.938Z,5.19
2019-05-16T07:15:57.402Z,5.15
2019-05-16T07:18:30.742Z,5.21
2019-05-16T07:21:00.570Z,5.24
2019-05-16T07:23:31.832Z,5.28
2019-05-16T07:26:02.378Z,5.36
2019-05-16T07:28:32.809Z,5.45
2019-05-16T07:31:17.500Z,5.46
2019-05-16T07:33:40.643Z,5.54
2019-05-16T07:36:16.058Z,5.57
2019-05-16T07:38:46.705Z,5.63
2019-05-16T07:41:17.150Z,5.66
2019-05-16T07:43:50.291Z,5.69
2019-05-16T07:46:23.282Z,5.72
2019-05-16T07:48:57.078Z,5.63
2019-05-16T07:51:35.199Z,5.58
2019-05-16T07:54:10.353Z,5.55
2019-05-16T07:56:45.135Z,5.53
2019-05-16T07:59:21.077Z,5.41
2019-05-16T08:01:54.131Z,5.47
2019-05-16T08:04:31.943Z,5.54
2019-05-16T08:07:05.641Z,5.59
2019-05-16T08:10:03.698Z,5.64
2019-05-16T08:12:40.869Z,5.65
2019-05-16T08:15:11.968Z,5.60
2019-05-16T08:17:44.607Z,5.65
2019-05-16T08:20:18.103Z,5.67
2019-05-16T08:23:02.127Z,5.67
2019-05-16T08:25:32.765Z,5.70
2019-05-16T08:28:03.194Z,5.73
2019-05-16T08:30:33.750Z,5.77
2019-05-16T08:33:13.595Z,5.75
2019-05-16T08:35:45.980Z,5.76
2019-05-16T08:38:16.369Z,5.78
2019-05-16T08:41:04.416Z,5.77
2019-05-16T08:43:22.242Z,5.72
2019-05-16T08:48:42.273Z,5.72
2019-05-16T08:51:33.243Z,5.72
2019-05-16T08:54:03.621Z,5.77
2019-05-16T08:59:41.261Z,5.75
2019-05-16T09:02:27.364Z,5.76
2019-05-16T09:04:56.718Z,5.80
2019-05-16T09:07:27.163Z,5.84
2019-05-16T09:10:03.365Z,5.90
2019-05-16T09:10:21.223Z,5.75
2019-05-16T09:10:35.347Z,5.77
2019-05-16T09:12:40.052Z,5.95
2019-05-16T09:15:10.758Z,6.05
2019-05-16T09:17:41.238Z,6.15
2019-05-16T09:20:17.384Z,6.23
2019-05-16T09:22:52.239Z,6.26
2019-05-16T09:25:23.229Z,6.25
2019-05-16T09:28:09.242Z,6.29
2019-05-16T09:30:41.805Z,6.30
2019-05-16T09:33:12.199Z,6.32
2019-05-16T09:35:44.244Z,6.25
2019-05-16T09:38:28.733Z,6.22
2019-05-16T09:40:59.067Z,6.34
2019-05-16T09:43:38.847Z,6.34
2019-05-16T09:46:08.074Z,6.27
2019-05-16T09:48:47.785Z,6.34
2019-05-16T09:51:19.329Z,6.26
2019-05-16T09:53:49.214Z,6.29
2019-05-16T09:56:20.086Z,6.36
2019-05-16T09:58:50.485Z,6.39
2019-05-16T10:01:20.906Z,6.40
2019-05-16T10:03:53.640Z,6.28
2019-05-16T10:06:27.607Z,6.31
2019-05-16T10:08:58.206Z,6.33
2019-05-16T10:11:30.865Z,6.31
2019-05-16T10:14:01.122Z,6.37
2019-05-16T10:16:31.765Z,6.41
2019-05-16T10:19:02.308Z,6.36
2019-05-16T10:21:47.970Z,6.41
2019-05-16T10:24:18.588Z,6.41
2019-05-16T10:26:53.771Z,6.44
2019-05-16T10:29:21.290Z,6.48
2019-05-16T10:31:56.905Z,6.48
2019-05-16T10:34:27.705Z,6.48
2019-05-16T10:37:01.111Z,6.47
2019-05-16T10:39:46.901Z,6.47
2019-05-16T10:43:13.086Z,6.48
2019-05-16T10:45:47.172Z,6.48
2019-05-16T10:48:19.015Z,6.51
2019-05-16T10:50:49.870Z,6.49
2019-05-16T10:53:43.042Z,6.43
2019-05-16T10:55:53.183Z,6.42
2019-05-16T10:58:36.682Z,6.46
2019-05-16T11:01:17.845Z,6.45
2019-05-16T11:03:31.606Z,6.45
2019-05-16T11:06:08.322Z,6.51
2019-05-16T11:08:41.862Z,6.48
2019-05-16T11:11:14.170Z,6.52
2019-05-16T11:13:47.107Z,6.57
2019-05-16T11:16:21.641Z,6.64
2019-05-16T11:18:54.254Z,6.67
2019-05-16T11:21:26.710Z,6.52
2019-05-16T11:23:56.757Z,6.56
2019-05-16T11:26:30.116Z,6.53
2019-05-16T11:29:02.556Z,6.52
2019-05-16T11:31:37.291Z,6.60
2019-05-16T11:34:11.438Z,6.73
2019-05-16T11:36:42.349Z,6.68
2019-05-16T11:39:17.408Z,6.66
2019-05-16T11:41:48.467Z,6.69
2019-05-16T11:44:19.098Z,6.68
2019-05-16T11:46:49.627Z,6.79
2019-05-16T11:49:20.765Z,6.79
2019-05-16T11:52:18.049Z,6.86
2019-05-16T11:55:03.150Z,6.89
2019-05-16T11:57:33.755Z,6.75
2019-05-16T12:00:07.944Z,6.78
2019-05-16T12:02:42.469Z,6.81
2019-05-16T12:05:11.264Z,6.86
2019-05-16T12:07:47.434Z,6.94
2019-05-16T12:10:17.981Z,7.00
2019-05-16T12:12:49.080Z,7.10
2019-05-16T12:15:21.225Z,7.10
2019-05-16T12:18:03.856Z,7.06
2019-05-16T12:20:27.411Z,7.13
2019-05-16T12:22:58.336Z,7.21
2019-05-16T12:25:28.711Z,7.25
2019-05-16T12:27:59.160Z,7.26
2019-05-16T12:30:29.608Z,7.37
2019-05-16T12:33:00.127Z,7.41
2019-05-16T12:35:30.559Z,7.44
2019-05-16T12:38:02.812Z,7.48
2019-05-16T12:40:33.301Z,7.43
2019-05-16T12:43:03.775Z,7.39
2019-05-16T12:45:38.787Z,7.35
2019-05-16T12:48:09.477Z,7.36
2019-05-16T12:50:40.193Z,7.33
2019-05-16T12:53:12.252Z,7.32
2019-05-16T12:55:42.780Z,7.36
2019-05-16T12:58:14.170Z,7.41
2019-05-16T13:00:57.591Z,7.38
2019-05-16T13:06:17.261Z,7.26
2019-05-16T13:08:53.470Z,7.31
2019-05-16T13:11:27.025Z,7.44
2019-05-16T13:14:05.743Z,7.50
2019-05-16T13:16:31.622Z,7.61
2019-05-16T13:19:02.422Z,7.62
2019-05-16T13:21:34.800Z,7.72
2019-05-16T13:24:06.940Z,7.82
2019-05-16T13:26:37.832Z,7.96
2019-05-16T13:29:10.102Z,8.02
2019-05-16T13:31:44.413Z,8.02
2019-05-16T13:34:17.769Z,8.04
2019-05-16T13:36:47.638Z,8.15
2019-05-16T13:39:20.986Z,8.05
2019-05-16T13:41:51.365Z,8.06
2019-05-16T13:44:23.157Z,8.11
2019-05-16T13:46:56.809Z,8.09
2019-05-16T13:49:31.761Z,7.96
2019-05-16T13:54:56.471Z,7.89
2019-05-16T13:57:32.225Z,7.86
2019-05-16T14:00:07.334Z,7.81
2019-05-16T14:02:38.276Z,7.74
2019-05-16T14:05:10.868Z,7.75
2019-05-16T14:07:43.567Z,7.79
2019-05-16T14:10:18.151Z,7.76
2019-05-16T14:12:50.470Z,7.68
2019-05-16T14:15:22.757Z,7.59
2019-05-16T14:17:56.825Z,7.62
2019-05-16T14:20:40.104Z,7.71
2019-05-16T14:23:12.136Z,7.74
2019-05-16T14:25:43.852Z,7.74
2019-05-16T14:28:17.356Z,7.72
2019-05-16T14:30:47.041Z,7.77
2019-05-16T14:33:20.219Z,7.82
2019-05-16T14:35:53.078Z,7.81
2019-05-16T14:38:26.953Z,7.73
2019-05-16T14:41:00.870Z,7.69
2019-05-16T14:43:31.592Z,7.66
2019-05-16T14:46:09.450Z,7.68
2019-05-16T14:48:43.318Z,7.72
2019-05-16T14:51:20.839Z,7.72
2019-05-16T14:53:54.472Z,7.68
2019-05-16T14:56:47.678Z,7.65
2019-05-16T14:59:18.539Z,7.59
2019-05-16T15:01:49.659Z,7.51
2019-05-16T15:04:20.104Z,7.49
2019-05-16T15:06:50.504Z,7.51
2019-05-16T15:09:50.630Z,7.49
2019-05-16T15:13:02.505Z,7.46
2019-05-16T15:16:12.819Z,7.49
2019-05-16T15:18:47.335Z,7.43
2019-05-16T15:21:41.672Z,7.39
2019-05-16T15:24:12.132Z,7.42
2019-05-16T15:26:42.726Z,7.43
2019-05-16T15:29:13.167Z,7.43
2019-05-16T15:31:46.805Z,7.38
2019-05-16T15:34:21.115Z,7.38
2019-05-16T15:36:53.138Z,7.36
2019-05-16T15:39:28.255Z,7.41
2019-05-16T15:42:00.789Z,7.40
2019-05-16T15:44:31.410Z,7.34
2019-05-16T15:47:08.032Z,7.33
2019-05-16T15:49:38.616Z,7.34
2019-05-16T15:52:12.561Z,7.26
2019-05-16T15:54:43.223Z,7.28
2019-05-16T15:57:27.236Z,7.24
2019-05-16T16:00:07.044Z,7.28
2019-05-16T16:02:37.102Z,7.23
2019-05-16T16:05:08.112Z,7.22
2019-05-16T16:07:38.849Z,7.24
2019-05-16T16:10:17.423Z,7.24
2019-05-16T16:12:47.904Z,7.25
2019-05-16T16:15:18.507Z,7.24
2019-05-16T16:17:49.079Z,7.28
2019-05-16T16:20:39.100Z,7.23
2019-05-16T16:23:17.788Z,7.24
2019-05-16T16:25:51.275Z,7.27
2019-05-16T16:28:28.556Z,7.19
2019-05-16T16:31:01.988Z,7.18
2019-05-16T16:33:43.564Z,7.20
2019-05-16T16:36:16.923Z,7.17
2019-05-16T16:38:47.630Z,7.17
2019-05-16T16:41:28.877Z,7.17
2019-05-16T16:43:59.283Z,7.18
2019-05-16T16:46:30.347Z,7.17
2019-05-16T16:49:11.459Z,7.15
2019-05-16T16:51:44.894Z,7.14
2019-05-16T16:54:17.055Z,7.14
2019-05-16T16:56:50.111Z,7.12
2019-05-16T16:59:22.224Z,7.04
2019-05-16T17:01:57.020Z,7.02
2019-05-16T17:04:29.835Z,6.98
2019-05-16T17:07:03.266Z,6.99
2019-05-16T17:10:03.131Z,6.96
2019-05-16T17:12:33.531Z,6.98
2019-05-16T17:15:13.053Z,6.95
2019-05-16T17:17:43.464Z,6.97
2019-05-16T17:20:20.391Z,6.97
2019-05-16T17:22:53.748Z,6.98
2019-05-16T17:25:27.011Z,6.96
2019-05-16T17:28:07.046Z,6.93
2019-05-16T17:30:47.076Z,6.92
2019-05-16T17:33:12.605Z,6.93
2019-05-16T17:35:53.634Z,6.95
2019-05-16T17:38:26.492Z,6.95
2019-05-16T17:41:02.622Z,6.96
2019-05-16T17:43:33.093Z,6.99
2019-05-16T17:46:06.823Z,7.01
2019-05-16T17:48:38.378Z,7.02
2019-05-16T17:51:21.890Z,7.01
2019-05-16T17:53:52.332Z,7.00
2019-05-16T17:56:45.077Z,6.97
2019-05-16T17:59:18.287Z,6.98
2019-05-16T18:01:48.889Z,7.00
2019-05-16T18:04:26.687Z,7.02
2019-05-16T18:06:58.815Z,7.01
2019-05-16T18:09:33.844Z,7.03
2019-05-16T18:12:06.868Z,7.03
2019-05-16T18:14:41.081Z,6.97
2019-05-16T18:17:12.350Z,6.99
2019-05-16T18:19:42.726Z,7.00
2019-05-16T18:22:17.816Z,7.04
2019-05-16T18:24:49.128Z,7.08
2019-05-16T18:27:21.684Z,7.12
2019-05-16T18:29:53.298Z,7.14
2019-05-16T18:32:26.629Z,7.15
2019-05-16T18:34:59.883Z,7.17
2019-05-16T18:37:36.802Z,7.14
2019-05-16T18:40:08.979Z,7.13
2019-05-16T18:42:40.945Z,7.13
2019-05-16T18:45:20.913Z,7.09
2019-05-16T18:47:51.432Z,7.08
2019-05-16T18:50:22.104Z,7.03
2019-05-16T18:52:57.826Z,6.99
2019-05-16T18:55:40.467Z,6.97
2019-05-16T18:58:18.010Z,6.95
2019-05-16T19:00:50.846Z,6.97
2019-05-16T19:03:35.106Z,6.95
2019-05-16T19:06:10.688Z,6.95
2019-05-16T19:08:45.939Z,6.93
2019-05-16T19:11:17.658Z,6.92
2019-05-16T19:13:48.365Z,6.90
2019-05-16T19:16:19.112Z,6.87
2019-05-16T19:18:56.616Z,6.86
2019-05-16T19:21:26.320Z,6.86
2019-05-16T19:23:56.889Z,6.85
2019-05-16T19:26:28.208Z,6.83
2019-05-16T19:29:01.125Z,6.82
2019-05-16T19:31:32.760Z,6.83
2019-05-16T19:34:11.970Z,6.83
2019-05-16T19:36:52.001Z,6.81
2019-05-16T19:39:22.217Z,6.78
2019-05-16T19:41:52.668Z,6.78
2019-05-16T19:44:23.226Z,6.79
2019-05-16T19:47:03.305Z,6.78
2019-05-16T19:49:37.082Z,6.77
2019-05-16T19:52:11.099Z,6.76
2019-05-16T19:54:48.946Z,6.77
2019-05-16T19:57:19.586Z,6.76
2019-05-16T20:00:05.950Z,6.75
2019-05-16T20:02:36.938Z,6.73
2019-05-16T20:05:07.549Z,6.75
2019-05-16T20:07:39.156Z,6.75
2019-05-16T20:10:09.865Z,6.73
2019-05-16T20:12:46.343Z,6.72
2019-05-16T20:15:17.172Z,6.74
2019-05-16T20:17:54.731Z,6.73
2019-05-16T20:20:29.942Z,6.73
2019-05-16T20:23:00.735Z,6.70
2019-05-16T20:25:31.310Z,6.70
2019-05-16T20:28:02.147Z,6.68
2019-05-16T20:30:33.836Z,6.68
2019-05-16T20:33:08.941Z,6.69
2019-05-16T20:35:37.770Z,6.71
2019-05-16T20:38:08.398Z,6.72
2019-05-16T20:40:40.256Z,6.68
2019-05-16T20:43:17.358Z,6.69
2019-05-16T20:45:47.929Z,6.69
2019-05-16T20:48:20.727Z,6.69
2019-05-16T20:50:51.226Z,6.69
2019-05-16T20:53:21.896Z,6.69
2019-05-16T20:55:52.352Z,6.71
2019-05-16T20:58:29.412Z,6.69
2019-05-16T21:01:01.617Z,6.69
2019-05-16T21:03:32.129Z,6.69
2019-05-16T21:06:02.685Z,6.69
2019-05-16T21:08:37.091Z,6.69
2019-05-16T21:11:17.343Z,6.67
2019-05-16T21:13:49.106Z,6.64
2019-05-16T21:16:20.052Z,6.63
2019-05-16T21:18:52.324Z,6.62
2019-05-16T21:21:23.008Z,6.59
2019-05-16T21:23:53.471Z,6.57
2019-05-16T21:26:26.205Z,6.53
2019-05-16T21:28:56.981Z,6.51
2019-05-16T21:31:27.757Z,6.50
2019-05-16T21:34:04.339Z,6.49
2019-05-16T21:36:36.642Z,6.46
2019-05-16T21:39:13.462Z,6.46
2019-05-16T21:41:43.893Z,6.44
2019-05-16T21:44:17.063Z,6.41
2019-05-16T21:46:48.132Z,6.40
2019-05-16T21:49:19.566Z,6.39
2019-05-16T21:51:50.744Z,6.38
2019-05-16T21:54:22.245Z,6.37
2019-05-16T21:56:53.247Z,6.37
2019-05-16T21:59:23.956Z,6.35
2019-05-16T22:01:56.567Z,6.37
2019-05-16T22:04:28.965Z,6.35
2019-05-16T22:06:59.696Z,6.35
2019-05-16T22:09:30.136Z,6.35
2019-05-16T22:12:00.664Z,6.35
2019-05-16T22:14:39.712Z,6.35
2019-05-16T22:17:10.141Z,6.37
2019-05-16T22:19:41.086Z,6.38
2019-05-16T22:22:11.829Z,6.37
2019-05-16T22:24:42.816Z,6.40
2019-05-16T22:27:13.241Z,6.40
2019-05-16T22:29:43.706Z,6.39
2019-05-16T22:32:27.157Z,6.39
2019-05-16T22:34:59.876Z,6.38
2019-05-16T22:37:32.400Z,6.39
2019-05-16T22:40:11.179Z,6.40
2019-05-16T22:42:43.435Z,6.40
2019-05-16T22:45:17.913Z,6.41
2019-05-16T22:47:49.367Z,6.44
2019-05-16T22:50:22.308Z,6.44
2019-05-16T22:52:56.974Z,6.46
2019-05-16T22:55:37.186Z,6.47
2019-05-16T22:58:07.618Z,6.47
2019-05-16T23:00:41.305Z,6.47
2019-05-16T23:03:10.405Z,6.46
2019-05-16T23:05:41.143Z,6.43
2019-05-16T23:08:11.616Z,6.44
2019-05-16T23:10:44.818Z,6.46
2019-05-16T23:13:17.004Z,6.46
2019-05-16T23:15:47.947Z,6.45
2019-05-16T23:18:20.092Z,6.46
2019-05-16T23:20:50.722Z,6.46
2019-05-16T23:23:21.117Z,6.47
2019-05-16T23:25:51.593Z,6.47
2019-05-16T23:28:23.569Z,6.48
2019-05-16T23:30:54.036Z,6.47
2019-05-16T23:33:26.774Z,6.49
2019-05-16T23:35:57.637Z,6.49
2019-05-16T23:38:29.273Z,6.49
2019-05-16T23:40:59.733Z,6.47
2019-05-16T23:43:30.185Z,6.47
2019-05-16T23:46:01.022Z,6.46
2019-05-16T23:48:31.989Z,6.45
2019-05-16T23:51:02.443Z,6.46
2019-05-16T23:53:33.230Z,6.42
2019-05-16T23:56:03.680Z,6.40
2019-05-16T23:58:34.095Z,6.39
